sensor_id;sensor_type;location;lat;lon;timestamp;P1;durP1;ratioP1;P2;durP2;ratioP2
63370;SDS011;49504;48.336;14.472;2022-09-20T00:02:30;4.63;;;2.85;;
63370;SDS011;49504;48.336;14.472;2022-09-20T00:07:31;4.38;;;2.78;;
63370;SDS011;49504;48.336;14.472;2022-09-20T00:12:32;5.53;;;3.00;;
63370;SDS011;49504;48.336;14.472;2022-09-20T00:17:34;5.10;;;2.65;;
63370;SDS011;49504;48.336;14.472;2022-09-20T00:25:24;4.63;;;2.85;;
63370;SDS011;49504;48.336;14.472;2022-09-20T00:30:25;5.10;;;2.65;;
63370;SDS011;49504;48.336;14.472;2022-09-20T00:35:26;4.88;;;3.13;;
63370;SDS011;49504;48.336;14.472;2022-09-20T00:41:58;4.55;;;2.90;;
63370;SDS011;49504;48.336;14.472;2022-09-20T00:46:59;4.97;;;2.90;;
63370;SDS011;49504;48.336;14.472;2022-09-20T00:52:02;4.20;;;2.70;;
63370;SDS011;49504;48.336;14.472;2022-09-20T00:57:04;5.95;;;2.78;;
63370;SDS011;49504;48.336;14.472;2022-09-20T01:02:07;4.18;;;2.50;;
63370;SDS011;49504;48.336;14.472;2022-09-20T01:07:12;4.05;;;2.42;;
63370;SDS011;49504;48.336;14.472;2022-09-20T01:12:19;4.47;;;2.70;;
63370;SDS011;49504;48.336;14.472;2022-09-20T01:17:25;4.70;;;2.57;;
63370;SDS011;49504;48.336;14.472;2022-09-20T01:25:28;3.95;;;2.60;;
63370;SDS011;49504;48.336;14.472;2022-09-20T01:37:55;4.53;;;2.63;;
63370;SDS011;49504;48.336;14.472;2022-09-20T01:43:19;3.70;;;2.60;;
63370;SDS011;49504;48.336;14.472;2022-09-20T01:48:29;4.88;;;2.83;;
63370;SDS011;49504;48.336;14.472;2022-09-20T01:53:51;3.90;;;2.30;;
63370;SDS011;49504;48.336;14.472;2022-09-20T01:59:36;4.50;;;2.30;;
63370;SDS011;49504;48.336;14.472;2022-09-20T02:05:06;4.50;;;2.30;;
63370;SDS011;49504;48.336;14.472;2022-09-20T02:11:34;4.80;;;2.63;;
63370;SDS011;49504;48.336;14.472;2022-09-20T02:16:49;4.47;;;2.55;;
63370;SDS011;49504;48.336;14.472;2022-09-20T02:24:34;4.35;;;2.47;;
63370;SDS011;49504;48.336;14.472;2022-09-20T02:34:02;3.67;;;2.20;;
63370;SDS011;49504;48.336;14.472;2022-09-20T02:39:44;4.07;;;2.40;;
63370;SDS011;49504;48.336;14.472;2022-09-20T02:45:01;5.40;;;2.42;;
63370;SDS011;49504;48.336;14.472;2022-09-20T02:50:24;4.03;;;2.08;;
63370;SDS011;49504;48.336;14.472;2022-09-20T02:55:34;4.95;;;2.45;;
63370;SDS011;49504;48.336;14.472;2022-09-20T03:00:44;4.10;;;2.10;;
63370;SDS011;49504;48.336;14.472;2022-09-20T03:09:39;4.68;;;2.35;;
63370;SDS011;49504;48.336;14.472;2022-09-20T03:14:51;3.38;;;1.75;;
63370;SDS011;49504;48.336;14.472;2022-09-20T03:24:19;3.90;;;1.80;;
63370;SDS011;49504;48.336;14.472;2022-09-20T03:29:36;3.40;;;2.00;;
63370;SDS011;49504;48.336;14.472;2022-09-20T03:34:52;3.33;;;1.70;;
63370;SDS011;49504;48.336;14.472;2022-09-20T03:40:41;4.47;;;1.75;;
63370;SDS011;49504;48.336;14.472;2022-09-20T03:46:08;3.33;;;1.77;;
63370;SDS011;49504;48.336;14.472;2022-09-20T03:51:20;3.63;;;1.80;;
63370;SDS011;49504;48.336;14.472;2022-09-20T04:01:19;3.75;;;1.98;;
63370;SDS011;49504;48.336;14.472;2022-09-20T04:06:43;3.50;;;1.80;;
63370;SDS011;49504;48.336;14.472;2022-09-20T04:11:58;3.40;;;1.85;;
63370;SDS011;49504;48.336;14.472;2022-09-20T04:17:14;3.90;;;1.70;;
63370;SDS011;49504;48.336;14.472;2022-09-20T04:25:28;3.60;;;2.05;;
63370;SDS011;49504;48.336;14.472;2022-09-20T04:30:35;3.40;;;1.58;;
63370;SDS011;49504;48.336;14.472;2022-09-20T04:35:41;3.70;;;1.67;;
63370;SDS011;49504;48.336;14.472;2022-09-20T04:46:27;3.58;;;1.80;;
63370;SDS011;49504;48.336;14.472;2022-09-20T05:03:45;4.57;;;1.92;;
63370;SDS011;49504;48.336;14.472;2022-09-20T05:17:13;3.58;;;1.48;;
63370;SDS011;49504;48.336;14.472;2022-09-20T05:28:09;3.88;;;1.60;;
63370;SDS011;49504;48.336;14.472;2022-09-20T05:33:19;3.13;;;1.73;;
63370;SDS011;49504;48.336;14.472;2022-09-20T05:38:28;4.05;;;2.03;;
63370;SDS011;49504;48.336;14.472;2022-09-20T05:45:18;3.03;;;1.67;;
63370;SDS011;49504;48.336;14.472;2022-09-20T05:50:44;3.40;;;1.60;;
63370;SDS011;49504;48.336;14.472;2022-09-20T05:58:04;3.95;;;2.22;;
63370;SDS011;49504;48.336;14.472;2022-09-20T06:03:23;4.38;;;3.00;;
63370;SDS011;49504;48.336;14.472;2022-09-20T06:08:39;4.15;;;2.85;;
63370;SDS011;49504;48.336;14.472;2022-09-20T06:14:18;3.72;;;2.47;;
63370;SDS011;49504;48.336;14.472;2022-09-20T06:19:35;3.90;;;2.17;;
63370;SDS011;49504;48.336;14.472;2022-09-20T06:24:42;3.30;;;1.98;;
63370;SDS011;49504;48.336;14.472;2022-09-20T06:29:49;5.00;;;3.88;;
63370;SDS011;49504;48.336;14.472;2022-09-20T06:34:54;4.10;;;3.05;;
63370;SDS011;49504;48.336;14.472;2022-09-20T06:39:56;5.35;;;2.80;;
63370;SDS011;49504;48.336;14.472;2022-09-20T06:45:05;3.80;;;2.78;;
63370;SDS011;49504;48.336;14.472;2022-09-20T06:50:10;3.83;;;2.65;;
63370;SDS011;49504;48.336;14.472;2022-09-20T06:55:16;7.80;;;3.53;;
63370;SDS011;49504;48.336;14.472;2022-09-20T07:02:24;11.25;;;7.03;;
63370;SDS011;49504;48.336;14.472;2022-09-20T07:07:25;15.23;;;7.05;;
63370;SDS011;49504;48.336;14.472;2022-09-20T07:12:27;12.32;;;7.07;;
63370;SDS011;49504;48.336;14.472;2022-09-20T07:17:30;13.98;;;7.20;;
63370;SDS011;49504;48.336;14.472;2022-09-20T07:26:54;11.18;;;7.32;;
63370;SDS011;49504;48.336;14.472;2022-09-20T07:33:04;10.82;;;6.45;;
63370;SDS011;49504;48.336;14.472;2022-09-20T07:38:04;10.30;;;6.60;;
63370;SDS011;49504;48.336;14.472;2022-09-20T07:43:05;9.25;;;6.07;;
63370;SDS011;49504;48.336;14.472;2022-09-20T07:48:08;9.90;;;6.20;;
63370;SDS011;49504;48.336;14.472;2022-09-20T07:53:09;12.25;;;6.07;;
63370;SDS011;49504;48.336;14.472;2022-09-20T08:03:06;9.48;;;5.40;;
63370;SDS011;49504;48.336;14.472;2022-09-20T08:11:21;10.73;;;5.55;;
63370;SDS011;49504;48.336;14.472;2022-09-20T08:16:24;10.15;;;5.40;;
63370;SDS011;49504;48.336;14.472;2022-09-20T08:30:28;8.63;;;4.45;;
63370;SDS011;49504;48.336;14.472;2022-09-20T08:37:45;8.27;;;4.70;;
63370;SDS011;49504;48.336;14.472;2022-09-20T08:42:46;8.20;;;4.82;;
63370;SDS011;49504;48.336;14.472;2022-09-20T08:47:48;7.63;;;4.43;;
63370;SDS011;49504;48.336;14.472;2022-09-20T08:52:54;7.45;;;4.50;;
63370;SDS011;49504;48.336;14.472;2022-09-20T08:57:58;7.50;;;4.85;;
63370;SDS011;49504;48.336;14.472;2022-09-20T09:03:03;7.90;;;4.05;;
63370;SDS011;49504;48.336;14.472;2022-09-20T09:13:27;5.72;;;3.15;;
63370;SDS011;49504;48.336;14.472;2022-09-20T09:18:34;5.60;;;3.22;;
63370;SDS011;49504;48.336;14.472;2022-09-20T09:23:39;6.40;;;3.25;;
63370;SDS011;49504;48.336;14.472;2022-09-20T09:31:11;5.97;;;3.17;;
63370;SDS011;49504;48.336;14.472;2022-09-20T09:41:06;5.85;;;3.55;;
63370;SDS011;49504;48.336;14.472;2022-09-20T09:47:55;6.93;;;3.70;;
63370;SDS011;49504;48.336;14.472;2022-09-20T09:52:59;5.82;;;2.75;;
63370;SDS011;49504;48.336;14.472;2022-09-20T09:58:05;6.53;;;3.15;;
63370;SDS011;49504;48.336;14.472;2022-09-20T10:11:40;4.93;;;2.47;;
63370;SDS011;49504;48.336;14.472;2022-09-20T10:19:08;5.55;;;3.00;;
63370;SDS011;49504;48.336;14.472;2022-09-20T10:24:22;6.18;;;2.58;;
63370;SDS011;49504;48.336;14.472;2022-09-20T10:33:17;5.13;;;2.50;;
63370;SDS011;49504;48.336;14.472;2022-09-20T10:38:30;5.63;;;2.60;;
63370;SDS011;49504;48.336;14.472;2022-09-20T10:43:45;4.43;;;2.87;;
63370;SDS011;49504;48.336;14.472;2022-09-20T10:49:08;5.05;;;2.75;;
63370;SDS011;49504;48.336;14.472;2022-09-20T11:04:32;4.50;;;2.22;;
63370;SDS011;49504;48.336;14.472;2022-09-20T11:10:03;4.70;;;2.60;;
63370;SDS011;49504;48.336;14.472;2022-09-20T11:15:15;4.53;;;2.28;;
63370;SDS011;49504;48.336;14.472;2022-09-20T11:20:21;5.32;;;2.90;;
63370;SDS011;49504;48.336;14.472;2022-09-20T11:33:49;4.10;;;2.20;;
63370;SDS011;49504;48.336;14.472;2022-09-20T11:43:23;4.00;;;2.28;;
63370;SDS011;49504;48.336;14.472;2022-09-20T11:57:15;4.20;;;2.25;;
63370;SDS011;49504;48.336;14.472;2022-09-20T12:02:17;4.72;;;1.90;;
63370;SDS011;49504;48.336;14.472;2022-09-20T12:10:31;3.80;;;1.90;;
63370;SDS011;49504;48.336;14.472;2022-09-20T12:15:57;4.70;;;2.53;;
63370;SDS011;49504;48.336;14.472;2022-09-20T12:21:12;3.70;;;1.98;;
63370;SDS011;49504;48.336;14.472;2022-09-20T12:37:16;3.85;;;2.08;;
63370;SDS011;49504;48.336;14.472;2022-09-20T12:42:26;3.75;;;1.77;;
63370;SDS011;49504;48.336;14.472;2022-09-20T12:48:38;3.60;;;1.60;;
63370;SDS011;49504;48.336;14.472;2022-09-20T12:53:38;3.22;;;1.52;;
63370;SDS011;49504;48.336;14.472;2022-09-20T12:58:47;3.92;;;1.67;;
63370;SDS011;49504;48.336;14.472;2022-09-20T13:03:52;4.78;;;1.95;;
63370;SDS011;49504;48.336;14.472;2022-09-20T13:08:55;4.35;;;1.60;;
63370;SDS011;49504;48.336;14.472;2022-09-20T13:14:04;2.97;;;1.52;;
63370;SDS011;49504;48.336;14.472;2022-09-20T13:19:13;5.85;;;2.20;;
63370;SDS011;49504;48.336;14.472;2022-09-20T13:24:17;2.50;;;1.00;;
63370;SDS011;49504;48.336;14.472;2022-09-20T13:29:21;2.15;;;0.77;;
63370;SDS011;49504;48.336;14.472;2022-09-20T13:34:29;1.40;;;0.50;;
63370;SDS011;49504;48.336;14.472;2022-09-20T13:39:31;2.13;;;0.82;;
63370;SDS011;49504;48.336;14.472;2022-09-20T13:44:34;2.58;;;1.00;;
63370;SDS011;49504;48.336;14.472;2022-09-20T13:49:41;2.60;;;1.10;;
63370;SDS011;49504;48.336;14.472;2022-09-20T13:54:42;2.38;;;0.82;;
63370;SDS011;49504;48.336;14.472;2022-09-20T13:59:44;2.10;;;0.73;;
63370;SDS011;49504;48.336;14.472;2022-09-20T14:04:48;3.00;;;1.02;;
63370;SDS011;49504;48.336;14.472;2022-09-20T14:09:52;2.72;;;1.00;;
63370;SDS011;49504;48.336;14.472;2022-09-20T14:14:54;2.63;;;1.02;;
63370;SDS011;49504;48.336;14.472;2022-09-20T14:19:57;2.65;;;1.00;;
63370;SDS011;49504;48.336;14.472;2022-09-20T14:24:59;3.17;;;1.48;;
63370;SDS011;49504;48.336;14.472;2022-09-20T14:30:03;4.47;;;2.35;;
63370;SDS011;49504;48.336;14.472;2022-09-20T14:35:11;3.95;;;2.33;;
63370;SDS011;49504;48.336;14.472;2022-09-20T14:40:24;3.90;;;2.05;;
63370;SDS011;49504;48.336;14.472;2022-09-20T14:45:28;3.30;;;1.77;;
63370;SDS011;49504;48.336;14.472;2022-09-20T14:50:33;4.05;;;2.13;;
63370;SDS011;49504;48.336;14.472;2022-09-20T14:55:37;4.00;;;2.00;;
63370;SDS011;49504;48.336;14.472;2022-09-20T15:00:46;4.00;;;2.70;;
63370;SDS011;49504;48.336;14.472;2022-09-20T15:05:52;4.80;;;2.53;;
63370;SDS011;49504;48.336;14.472;2022-09-20T15:10:53;3.20;;;2.00;;
63370;SDS011;49504;48.336;14.472;2022-09-20T15:15:54;5.55;;;3.88;;
63370;SDS011;49504;48.336;14.472;2022-09-20T15:20:57;10.63;;;3.28;;
63370;SDS011;49504;48.336;14.472;2022-09-20T15:25:58;5.85;;;2.83;;
63370;SDS011;49504;48.336;14.472;2022-09-20T15:30:59;4.57;;;3.03;;
63370;SDS011;49504;48.336;14.472;2022-09-20T15:36:02;5.30;;;2.75;;
63370;SDS011;49504;48.336;14.472;2022-09-20T15:41:04;4.40;;;2.60;;
63370;SDS011;49504;48.336;14.472;2022-09-20T15:46:15;5.55;;;2.70;;
63370;SDS011;49504;48.336;14.472;2022-09-20T15:51:20;4.63;;;2.67;;
63370;SDS011;49504;48.336;14.472;2022-09-20T15:56:22;5.07;;;2.92;;
63370;SDS011;49504;48.336;14.472;2022-09-20T16:01:26;6.05;;;3.10;;
63370;SDS011;49504;48.336;14.472;2022-09-20T16:06:30;4.57;;;2.63;;
63370;SDS011;49504;48.336;14.472;2022-09-20T16:11:31;4.53;;;2.55;;
63370;SDS011;49504;48.336;14.472;2022-09-20T16:16:33;4.30;;;2.83;;
63370;SDS011;49504;48.336;14.472;2022-09-20T16:23:32;4.43;;;2.33;;
63370;SDS011;49504;48.336;14.472;2022-09-20T16:28:33;4.85;;;2.30;;
63370;SDS011;49504;48.336;14.472;2022-09-20T16:33:34;4.85;;;2.70;;
63370;SDS011;49504;48.336;14.472;2022-09-20T16:38:37;4.65;;;2.47;;
63370;SDS011;49504;48.336;14.472;2022-09-20T16:43:38;4.72;;;2.13;;
63370;SDS011;49504;48.336;14.472;2022-09-20T16:53:09;4.72;;;2.35;;
63370;SDS011;49504;48.336;14.472;2022-09-20T16:58:10;4.13;;;2.35;;
63370;SDS011;49504;48.336;14.472;2022-09-20T17:03:11;11.02;;;2.90;;
63370;SDS011;49504;48.336;14.472;2022-09-20T17:08:14;4.32;;;2.50;;
63370;SDS011;49504;48.336;14.472;2022-09-20T17:13:15;4.07;;;2.20;;
63370;SDS011;49504;48.336;14.472;2022-09-20T17:18:16;3.88;;;2.28;;
63370;SDS011;49504;48.336;14.472;2022-09-20T17:23:18;3.53;;;2.10;;
63370;SDS011;49504;48.336;14.472;2022-09-20T17:28:19;3.72;;;2.05;;
63370;SDS011;49504;48.336;14.472;2022-09-20T17:33:20;2.90;;;1.45;;
63370;SDS011;49504;48.336;14.472;2022-09-20T17:38:23;3.72;;;1.90;;
63370;SDS011;49504;48.336;14.472;2022-09-20T17:43:24;4.00;;;2.03;;
63370;SDS011;49504;48.336;14.472;2022-09-20T17:48:24;4.45;;;1.92;;
63370;SDS011;49504;48.336;14.472;2022-09-20T17:53:27;3.42;;;1.98;;
63370;SDS011;49504;48.336;14.472;2022-09-20T17:58:32;4.35;;;1.80;;
63370;SDS011;49504;48.336;14.472;2022-09-20T18:03:34;4.90;;;2.33;;
63370;SDS011;49504;48.336;14.472;2022-09-20T18:08:38;6.90;;;2.38;;
63370;SDS011;49504;48.336;14.472;2022-09-20T18:13:40;9.38;;;3.97;;
63370;SDS011;49504;48.336;14.472;2022-09-20T18:18:42;7.40;;;3.72;;
63370;SDS011;49504;48.336;14.472;2022-09-20T18:23:45;6.75;;;3.58;;
63370;SDS011;49504;48.336;14.472;2022-09-20T18:28:54;6.45;;;2.85;;
63370;SDS011;49504;48.336;14.472;2022-09-20T18:33:57;6.93;;;3.10;;
63370;SDS011;49504;48.336;14.472;2022-09-20T18:39:00;7.03;;;2.95;;
63370;SDS011;49504;48.336;14.472;2022-09-20T18:44:02;7.65;;;2.90;;
63370;SDS011;49504;48.336;14.472;2022-09-20T18:49:05;7.10;;;2.85;;
63370;SDS011;49504;48.336;14.472;2022-09-20T18:54:10;6.85;;;2.65;;
63370;SDS011;49504;48.336;14.472;2022-09-20T18:59:12;6.47;;;2.97;;
63370;SDS011;49504;48.336;14.472;2022-09-20T19:04:22;6.97;;;2.80;;
63370;SDS011;49504;48.336;14.472;2022-09-20T19:09:50;6.63;;;2.90;;
63370;SDS011;49504;48.336;14.472;2022-09-20T19:14:59;4.57;;;2.50;;
63370;SDS011;49504;48.336;14.472;2022-09-20T19:20:16;6.95;;;2.38;;
63370;SDS011;49504;48.336;14.472;2022-09-20T19:25:25;4.80;;;2.03;;
63370;SDS011;49504;48.336;14.472;2022-09-20T19:30:32;5.97;;;2.83;;
63370;SDS011;49504;48.336;14.472;2022-09-20T19:35:34;4.60;;;2.47;;
63370;SDS011;49504;48.336;14.472;2022-09-20T19:40:41;5.70;;;2.75;;
63370;SDS011;49504;48.336;14.472;2022-09-20T19:48:47;5.30;;;2.70;;
63370;SDS011;49504;48.336;14.472;2022-09-20T20:00:34;5.50;;;2.83;;
63370;SDS011;49504;48.336;14.472;2022-09-20T20:05:36;5.30;;;2.95;;
63370;SDS011;49504;48.336;14.472;2022-09-20T20:10:47;6.28;;;3.08;;
63370;SDS011;49504;48.336;14.472;2022-09-20T20:16:00;5.50;;;2.92;;
63370;SDS011;49504;48.336;14.472;2022-09-20T20:21:04;7.68;;;3.83;;
63370;SDS011;49504;48.336;14.472;2022-09-20T20:28:57;6.35;;;3.33;;
63370;SDS011;49504;48.336;14.472;2022-09-20T20:36:50;7.18;;;3.55;;
63370;SDS011;49504;48.336;14.472;2022-09-20T20:41:51;5.65;;;3.05;;
63370;SDS011;49504;48.336;14.472;2022-09-20T20:46:52;6.63;;;3.50;;
63370;SDS011;49504;48.336;14.472;2022-09-20T20:51:54;6.55;;;3.50;;
63370;SDS011;49504;48.336;14.472;2022-09-20T20:56:55;6.45;;;3.58;;
63370;SDS011;49504;48.336;14.472;2022-09-20T21:01:56;5.72;;;3.40;;
63370;SDS011;49504;48.336;14.472;2022-09-20T21:06:59;5.45;;;2.83;;
63370;SDS011;49504;48.336;14.472;2022-09-20T21:16:03;6.13;;;3.40;;
63370;SDS011;49504;48.336;14.472;2022-09-20T21:21:12;6.78;;;3.72;;
63370;SDS011;49504;48.336;14.472;2022-09-20T21:27:25;6.05;;;3.47;;
63370;SDS011;49504;48.336;14.472;2022-09-20T21:32:26;6.00;;;3.13;;
63370;SDS011;49504;48.336;14.472;2022-09-20T21:41:44;5.55;;;3.28;;
63370;SDS011;49504;48.336;14.472;2022-09-20T21:46:45;5.82;;;2.80;;
63370;SDS011;49504;48.336;14.472;2022-09-20T21:51:46;5.80;;;3.10;;
63370;SDS011;49504;48.336;14.472;2022-09-20T21:59:46;5.85;;;3.50;;
63370;SDS011;49504;48.336;14.472;2022-09-20T22:04:47;4.78;;;2.75;;
63370;SDS011;49504;48.336;14.472;2022-09-20T22:09:48;5.97;;;2.92;;
63370;SDS011;49504;48.336;14.472;2022-09-20T22:16:02;5.35;;;2.92;;
63370;SDS011;49504;48.336;14.472;2022-09-20T22:21:06;7.25;;;3.58;;
63370;SDS011;49504;48.336;14.472;2022-09-20T22:37:46;4.85;;;2.60;;
63370;SDS011;49504;48.336;14.472;2022-09-20T22:42:47;5.68;;;2.50;;
63370;SDS011;49504;48.336;14.472;2022-09-20T22:49:04;5.90;;;2.97;;
63370;SDS011;49504;48.336;14.472;2022-09-20T22:55:49;4.97;;;2.50;;
63370;SDS011;49504;48.336;14.472;2022-09-20T23:00:50;4.68;;;2.63;;
63370;SDS011;49504;48.336;14.472;2022-09-20T23:07:53;5.10;;;2.55;;
63370;SDS011;49504;48.336;14.472;2022-09-20T23:12:54;5.68;;;2.70;;
63370;SDS011;49504;48.336;14.472;2022-09-20T23:17:55;5.20;;;2.25;;
63370;SDS011;49504;48.336;14.472;2022-09-20T23:22:57;4.18;;;2.35;;
63370;SDS011;49504;48.336;14.472;2022-09-20T23:27:58;4.65;;;2.35;;
63370;SDS011;49504;48.336;14.472;2022-09-20T23:33:00;4.15;;;2.40;;
63370;SDS011;49504;48.336;14.472;2022-09-20T23:38:02;4.40;;;2.30;;
63370;SDS011;49504;48.336;14.472;2022-09-20T23:43:03;4.28;;;1.88;;
63370;SDS011;49504;48.336;14.472;2022-09-20T23:53:06;4.15;;;2.03;;
63370;SDS011;49504;48.336;14.472;2022-09-20T23:58:07;4.80;;;2.03;;
